createdAt,value
2018-09-04T00:00:27.733Z,100081
2018-09-04T00:01:32.868Z,100065
2018-09-04T00:02:38.090Z,100084
2018-09-04T00:03:43.708Z,100084
2018-09-04T00:04:48.937Z,100075
2018-09-04T00:05:54.093Z,100081
2018-09-04T00:06:59.541Z,100075
2018-09-04T00:08:05.080Z,100078
2018-09-04T00:09:09.948Z,100073
2018-09-04T00:10:15.175Z,100073
2018-09-04T00:11:20.602Z,100073
2018-09-04T00:13:45.953Z,100073
2018-09-04T00:14:51.095Z,100068
2018-09-04T00:15:56.282Z,100075
2018-09-04T00:17:00.864Z,100075
2018-09-04T00:18:06.021Z,100065
2018-09-04T00:19:11.679Z,100065
2018-09-04T00:20:16.256Z,100065
2018-09-04T00:21:21.689Z,100062
2018-09-04T00:22:41.457Z,100065
2018-09-04T00:23:46.739Z,100056
2018-09-04T00:24:52.453Z,100056
2018-09-04T00:25:57.611Z,100053
2018-09-04T00:27:02.555Z,100044
2018-09-04T00:28:08.327Z,100053
2018-09-04T00:29:12.914Z,100041
2018-09-04T00:30:17.784Z,100050
2018-09-04T00:31:23.517Z,100041
2018-09-04T00:32:28.391Z,100050
2018-09-04T00:33:34.110Z,100050
2018-09-04T00:34:39.540Z,100044
2018-09-04T00:35:44.694Z,100047
2018-09-04T00:36:50.423Z,100050
2018-09-04T00:37:55.314Z,100056
2018-09-04T00:39:00.749Z,100056
2018-09-04T00:40:05.949Z,100047
2018-09-04T00:41:11.084Z,100056
2018-09-04T00:42:16.508Z,100056
2018-09-04T00:43:21.960Z,100047
2018-09-04T00:44:26.826Z,100047
2018-09-04T00:45:31.677Z,100056
2018-09-04T00:46:36.904Z,100047
2018-09-04T00:47:42.134Z,100047
2018-09-04T00:48:47.962Z,100053
2018-09-04T00:49:53.400Z,100062
2018-09-04T00:50:58.557Z,100062
2018-09-04T00:52:04.356Z,100065
2018-09-04T00:53:09.843Z,100062
2018-09-04T00:54:15.272Z,100053
2018-09-04T00:55:20.685Z,100062
2018-09-04T00:56:25.886Z,100059
2018-09-04T00:57:31.261Z,100056
2018-09-04T00:58:36.114Z,100059
2018-09-04T00:59:41.627Z,100059
2018-09-04T01:00:47.330Z,100047
2018-09-04T01:01:52.200Z,100044
2018-09-04T01:02:57.113Z,100065
2018-09-04T01:04:02.401Z,100056
2018-09-04T01:05:07.599Z,100056
2018-09-04T01:06:13.087Z,100050
2018-09-04T01:07:18.479Z,100068
2018-09-04T01:08:23.915Z,100056
2018-09-04T01:09:29.583Z,100053
2018-09-04T01:10:34.741Z,100059
2018-09-04T01:11:40.175Z,100059
2018-09-04T01:12:45.697Z,100050
2018-09-04T01:13:50.841Z,100056
2018-09-04T01:14:56.000Z,100053
2018-09-04T01:16:01.231Z,100065
2018-09-04T01:17:06.104Z,100065
2018-09-04T01:18:10.730Z,100056
2018-09-04T01:19:16.339Z,100065
2018-09-04T01:20:21.772Z,100062
2018-09-04T01:21:27.847Z,100062
2018-09-04T01:22:32.761Z,100059
2018-09-04T01:23:38.189Z,100056
2018-09-04T01:24:43.644Z,100056
2018-09-04T01:25:48.576Z,100059
2018-09-04T01:26:53.157Z,100053
2018-09-04T01:27:58.719Z,100062
2018-09-04T01:29:04.169Z,100065
2018-09-04T01:30:09.321Z,100059
2018-09-04T01:31:15.099Z,100053
2018-09-04T01:32:20.269Z,100056
2018-09-04T01:33:25.749Z,100059
2018-09-04T01:34:31.704Z,100053
2018-09-04T01:35:37.135Z,100068
2018-09-04T01:36:42.532Z,100059
2018-09-04T01:37:47.703Z,100053
2018-09-04T01:38:53.233Z,100065
2018-09-04T01:39:58.497Z,100062
2018-09-04T01:41:03.972Z,100062
2018-09-04T01:42:09.183Z,100065
2018-09-04T01:43:14.588Z,100073
2018-09-04T01:44:19.765Z,100075
2018-09-04T01:46:44.899Z,100075
2018-09-04T01:47:50.353Z,100065
2018-09-04T01:48:55.757Z,100065
2018-09-04T01:50:01.013Z,100065
2018-09-04T01:51:06.166Z,100073
2018-09-04T01:52:11.841Z,100073
2018-09-04T01:53:17.058Z,100062
2018-09-04T01:54:22.241Z,100059
2018-09-04T01:55:42.295Z,100073
2018-09-04T01:56:47.508Z,100062
2018-09-04T01:57:53.171Z,100068
2018-09-04T01:58:58.616Z,100065
2018-09-04T02:00:03.220Z,100068
2018-09-04T02:01:08.333Z,100056
2018-09-04T02:02:13.539Z,100050
2018-09-04T02:03:18.974Z,100073
2018-09-04T02:04:24.676Z,100059
2018-09-04T02:05:29.675Z,100062
2018-09-04T02:06:34.942Z,100059
2018-09-04T02:07:40.376Z,100041
2018-09-04T02:08:45.341Z,100053
2018-09-04T02:09:50.753Z,100062
2018-09-04T02:10:56.229Z,100059
2018-09-04T02:12:01.734Z,100047
2018-09-04T02:13:06.951Z,100053
2018-09-04T02:14:12.185Z,100068
2018-09-04T02:15:17.680Z,100053
2018-09-04T02:16:23.521Z,100050
2018-09-04T02:17:28.407Z,100050
2018-09-04T02:18:34.323Z,100047
2018-09-04T02:19:39.569Z,100053
2018-09-04T02:20:45.075Z,100056
2018-09-04T02:21:50.555Z,100047
2018-09-04T02:22:55.168Z,100050
2018-09-04T02:24:00.363Z,100053
2018-09-04T02:25:05.935Z,100050
2018-09-04T02:26:10.587Z,100047
2018-09-04T02:27:15.449Z,100056
2018-09-04T02:28:20.583Z,100044
2018-09-04T02:29:26.009Z,100050
2018-09-04T02:30:30.994Z,100041
2018-09-04T02:31:36.424Z,100047
2018-09-04T02:32:41.333Z,100041
2018-09-04T02:33:46.734Z,100041
2018-09-04T02:34:51.600Z,100050
2018-09-04T02:35:56.777Z,100039
2018-09-04T02:37:01.915Z,100044
2018-09-04T02:38:06.543Z,100041
2018-09-04T02:39:11.746Z,100053
2018-09-04T02:40:17.467Z,100044
2018-09-04T02:41:22.354Z,100050
2018-09-04T02:42:28.295Z,100047
2018-09-04T02:43:32.607Z,100044
2018-09-04T02:44:38.093Z,100039
2018-09-04T02:45:44.067Z,100036
2018-09-04T02:46:49.495Z,100044
2018-09-04T02:47:54.715Z,100041
2018-09-04T02:49:00.363Z,100044
2018-09-04T02:50:04.964Z,100039
2018-09-04T02:51:10.417Z,100039
2018-09-04T02:52:15.532Z,100039
2018-09-04T02:53:20.726Z,100027
2018-09-04T02:54:40.892Z,100039
2018-09-04T02:55:46.320Z,100039
2018-09-04T02:56:51.500Z,100036
2018-09-04T02:57:57.079Z,100050
2018-09-04T02:59:01.955Z,100041
2018-09-04T03:00:06.935Z,100050
2018-09-04T03:01:13.055Z,100050
2018-09-04T03:02:17.970Z,100047
2018-09-04T03:03:23.421Z,100073
2018-09-04T03:04:28.789Z,100056
2018-09-04T03:05:34.219Z,100053
2018-09-04T03:06:39.634Z,100065
2018-09-04T03:07:44.783Z,100050
2018-09-04T03:08:50.215Z,100050
2018-09-04T03:09:55.893Z,100059
2018-09-04T03:11:01.364Z,100053
2018-09-04T03:12:06.298Z,100056
2018-09-04T03:13:11.519Z,100050
2018-09-04T03:14:16.761Z,100059
2018-09-04T03:15:21.896Z,100047
2018-09-04T03:16:41.946Z,100062
2018-09-04T03:17:46.839Z,100056
2018-09-04T03:18:52.546Z,100056
2018-09-04T03:19:57.169Z,100053
2018-09-04T03:21:02.022Z,100056
2018-09-04T03:22:07.669Z,100047
2018-09-04T03:23:13.479Z,100053
2018-09-04T03:24:19.054Z,100053
2018-09-04T03:25:24.444Z,100047
2018-09-04T03:26:29.541Z,100044
2018-09-04T03:27:34.756Z,100044
2018-09-04T03:28:39.944Z,100041
2018-09-04T03:29:45.131Z,100047
2018-09-04T03:30:50.619Z,100050
2018-09-04T03:31:55.588Z,100041
2018-09-04T03:33:00.736Z,100050
2018-09-04T03:34:05.866Z,100050
2018-09-04T03:35:11.021Z,100041
2018-09-04T03:36:16.458Z,100041
2018-09-04T03:37:22.005Z,100041
2018-09-04T03:38:27.491Z,100056
2018-09-04T03:39:33.340Z,100050
2018-09-04T03:40:38.796Z,100050
2018-09-04T03:41:44.225Z,100053
2018-09-04T03:42:49.660Z,100047
2018-09-04T03:43:54.793Z,100050
2018-09-04T03:44:59.933Z,100050
2018-09-04T03:46:05.651Z,100047
2018-09-04T03:47:10.817Z,100047
2018-09-04T03:48:15.996Z,100036
2018-09-04T03:49:21.749Z,100036
2018-09-04T03:50:26.900Z,100036
2018-09-04T03:51:32.578Z,100039
2018-09-04T03:52:38.041Z,100041
2018-09-04T03:53:43.213Z,100047
2018-09-04T03:54:49.043Z,100059
2018-09-04T03:55:53.911Z,100050
2018-09-04T03:56:59.355Z,100041
2018-09-04T03:58:04.173Z,100041
2018-09-04T03:59:09.382Z,100047
2018-09-04T04:00:14.822Z,100041
2018-09-04T04:01:20.042Z,100050
2018-09-04T04:02:25.694Z,100047
2018-09-04T04:03:31.238Z,100039
2018-09-04T04:04:36.435Z,100041
2018-09-04T04:05:41.325Z,100047
2018-09-04T04:06:46.440Z,100050
2018-09-04T04:07:51.718Z,100041
2018-09-04T04:08:56.343Z,100047
2018-09-04T04:10:02.219Z,100038
2018-09-04T04:11:06.875Z,100047
2018-09-04T04:12:12.512Z,100044
2018-09-04T04:13:17.803Z,100047
2018-09-04T04:14:23.278Z,100050
2018-09-04T04:15:28.437Z,100041
2018-09-04T04:16:33.663Z,100062
2018-09-04T04:17:39.121Z,100050
2018-09-04T04:18:44.657Z,100056
2018-09-04T04:19:50.108Z,100062
2018-09-04T04:20:55.277Z,100050
2018-09-04T04:22:00.264Z,100059
2018-09-04T04:23:05.441Z,100059
2018-09-04T04:24:10.591Z,100056
2018-09-04T04:25:16.044Z,100056
2018-09-04T04:26:21.609Z,100062
2018-09-04T04:27:41.661Z,100067
2018-09-04T04:28:47.103Z,100065
2018-09-04T04:29:52.294Z,100050
2018-09-04T04:30:57.584Z,100075
2018-09-04T04:32:03.012Z,100078
2018-09-04T04:33:08.793Z,100075
2018-09-04T04:34:14.585Z,100065
2018-09-04T04:35:20.011Z,100059
2018-09-04T04:37:45.391Z,100075
2018-09-04T04:38:50.764Z,100070
2018-09-04T04:39:56.839Z,100067
2018-09-04T04:41:01.956Z,100064
2018-09-04T04:42:06.351Z,100070
2018-09-04T04:43:11.446Z,100081
2018-09-04T04:44:16.883Z,100075
2018-09-04T04:45:21.752Z,100078
2018-09-04T04:46:41.802Z,100067
2018-09-04T04:47:47.127Z,100075
2018-09-04T04:48:52.812Z,100075
2018-09-04T04:49:57.962Z,100070
2018-09-04T04:51:03.533Z,100070
2018-09-04T04:52:09.229Z,100064
2018-09-04T04:53:14.367Z,100062
2018-09-04T04:54:19.646Z,100064
2018-09-04T04:55:24.467Z,100070
2018-09-04T04:56:29.398Z,100062
2018-09-04T04:57:34.829Z,100075
2018-09-04T04:58:40.000Z,100064
2018-09-04T04:59:45.497Z,100070
2018-09-04T05:00:50.774Z,100078
2018-09-04T05:01:55.369Z,100078
2018-09-04T05:03:00.800Z,100070
2018-09-04T05:04:05.917Z,100087
2018-09-04T05:05:11.109Z,100084
2018-09-04T05:06:15.994Z,100075
2018-09-04T05:07:21.535Z,100064
2018-09-04T05:08:26.677Z,100061
2018-09-04T05:09:31.933Z,100067
2018-09-04T05:10:37.082Z,100061
2018-09-04T05:11:42.748Z,100061
2018-09-04T05:12:47.699Z,100061
2018-09-04T05:13:52.857Z,100067
2018-09-04T05:14:58.067Z,100064
2018-09-04T05:16:02.731Z,100070
2018-09-04T05:17:07.382Z,100078
2018-09-04T05:18:12.558Z,100067
2018-09-04T05:19:17.238Z,100075
2018-09-04T05:20:22.491Z,100064
2018-09-04T05:21:28.081Z,100064
2018-09-04T05:22:33.067Z,100064
2018-09-04T05:23:38.408Z,100059
2018-09-04T05:24:43.871Z,100067
2018-09-04T05:25:49.047Z,100067
2018-09-04T05:26:54.192Z,100061
2018-09-04T05:27:59.736Z,100078
2018-09-04T05:29:05.168Z,100064
2018-09-04T05:30:10.602Z,100081
2018-09-04T05:31:16.090Z,100081
2018-09-04T05:32:21.244Z,100081
2018-09-04T05:33:28.152Z,100081
2018-09-04T05:34:33.348Z,100070
2018-09-04T05:35:38.786Z,100084
2018-09-04T05:36:44.831Z,100087
2018-09-04T05:37:49.937Z,100087
2018-09-04T05:38:55.368Z,100087
2018-09-04T05:40:01.053Z,100075
2018-09-04T05:41:05.666Z,100075
2018-09-04T05:42:10.555Z,100078
2018-09-04T05:43:16.049Z,100075
2018-09-04T05:44:21.272Z,100070
2018-09-04T05:46:45.738Z,100070
2018-09-04T05:47:50.590Z,100081
2018-09-04T05:48:56.273Z,100075
2018-09-04T05:50:01.181Z,100078
2018-09-04T05:51:06.086Z,100089
2018-09-04T05:52:11.577Z,100078
2018-09-04T05:53:16.781Z,100084
2018-09-04T05:54:22.227Z,100084
2018-09-04T05:55:27.353Z,100084
2018-09-04T05:56:32.552Z,100078
2018-09-04T05:57:38.280Z,100081
2018-09-04T05:58:43.190Z,100092
2018-09-04T05:59:48.698Z,100084
2018-09-04T06:00:54.419Z,100084
2018-09-04T06:01:59.568Z,100084
2018-09-04T06:03:04.745Z,100084
2018-09-04T06:04:10.422Z,100067
2018-09-04T06:05:15.331Z,100075
2018-09-04T06:06:20.764Z,100081
2018-09-04T06:07:26.288Z,100078
2018-09-04T06:08:31.209Z,100081
2018-09-04T06:09:36.889Z,100084
2018-09-04T06:10:42.417Z,100081
2018-09-04T06:11:47.356Z,100084
2018-09-04T06:12:52.805Z,100081
2018-09-04T06:13:58.018Z,100087
2018-09-04T06:15:02.311Z,100084
2018-09-04T06:16:07.598Z,100078
2018-09-04T06:17:12.185Z,100084
2018-09-04T06:18:17.656Z,100070
2018-09-04T06:19:23.344Z,100061
2018-09-04T06:20:28.511Z,100070
2018-09-04T06:21:33.905Z,100075
2018-09-04T06:22:38.208Z,100067
2018-09-04T06:23:43.396Z,100070
2018-09-04T06:24:49.006Z,100061
2018-09-04T06:25:54.166Z,100067
2018-09-04T06:26:59.378Z,100064
2018-09-04T06:28:04.777Z,100067
2018-09-04T06:29:09.458Z,100058
2018-09-04T06:30:14.626Z,100064
2018-09-04T06:31:20.161Z,100078
2018-09-04T06:32:25.589Z,100084
2018-09-04T06:33:30.991Z,100067
2018-09-04T06:34:36.333Z,100070
2018-09-04T06:35:41.495Z,100064
2018-09-04T06:36:46.820Z,100078
2018-09-04T06:37:52.495Z,100070
2018-09-04T06:38:57.651Z,100070
2018-09-04T06:40:02.480Z,100061
2018-09-04T06:41:07.167Z,100064
2018-09-04T06:42:12.002Z,100075
2018-09-04T06:43:16.971Z,100081
2018-09-04T06:44:22.231Z,100070
2018-09-04T06:45:27.757Z,100078
2018-09-04T06:46:33.155Z,100081
2018-09-04T06:47:38.855Z,100078
2018-09-04T06:48:43.960Z,100070
2018-09-04T06:49:49.390Z,100081
2018-09-04T06:50:54.022Z,100078
2018-09-04T06:51:59.701Z,100087
2018-09-04T06:53:05.213Z,100081
2018-09-04T06:54:09.860Z,100084
2018-09-04T06:55:15.306Z,100087
2018-09-04T06:56:20.503Z,100087
2018-09-04T06:57:40.445Z,100095
2018-09-04T06:58:45.694Z,100089
2018-09-04T06:59:51.122Z,100084
2018-09-04T07:00:56.338Z,100104
2018-09-04T07:02:01.488Z,100098
2018-09-04T07:03:06.091Z,100098
2018-09-04T07:04:11.246Z,100104
2018-09-04T07:05:16.675Z,100104
2018-09-04T07:06:22.099Z,100098
2018-09-04T07:07:42.328Z,100104
2018-09-04T07:08:47.856Z,100095
2018-09-04T07:09:53.197Z,100107
2018-09-04T07:10:58.460Z,100098
2018-09-04T07:12:03.619Z,100107
2018-09-04T07:13:09.024Z,100098
2018-09-04T07:14:14.191Z,100107
2018-09-04T07:15:19.396Z,100113
2018-09-04T07:16:24.904Z,100107
2018-09-04T07:17:30.334Z,100104
2018-09-04T07:18:35.855Z,100104
2018-09-04T07:19:40.998Z,100104
2018-09-04T07:20:46.519Z,100101
2018-09-04T07:21:51.940Z,100104
2018-09-04T07:22:57.116Z,100098
2018-09-04T07:24:02.231Z,100101
2018-09-04T07:25:07.739Z,100095
2018-09-04T07:26:12.610Z,100110
2018-09-04T07:27:17.806Z,100110
2018-09-04T07:28:23.247Z,100107
2018-09-04T07:29:28.125Z,100107
2018-09-04T07:30:33.796Z,100104
2018-09-04T07:31:39.330Z,100107
2018-09-04T07:32:44.760Z,100107
2018-09-04T07:33:50.259Z,100107
2018-09-04T07:34:55.413Z,100110
2018-09-04T07:36:00.280Z,100107
2018-09-04T07:37:05.805Z,100115
2018-09-04T07:38:10.471Z,100115
2018-09-04T07:39:15.335Z,100115
2018-09-04T07:40:21.165Z,100113
2018-09-04T07:41:26.415Z,100118
2018-09-04T07:42:32.242Z,100121
2018-09-04T07:43:37.170Z,100118
2018-09-04T07:44:42.326Z,100113
2018-09-04T07:45:47.873Z,100115
2018-09-04T07:46:53.304Z,100110
2018-09-04T07:47:58.736Z,100110
2018-09-04T07:49:04.493Z,100115
2018-09-04T07:50:09.087Z,100115
2018-09-04T07:51:13.955Z,100113
2018-09-04T07:52:19.433Z,100110
2018-09-04T07:53:24.312Z,100113
2018-09-04T07:54:30.220Z,100115
2018-09-04T07:55:35.399Z,100107
2018-09-04T07:56:40.827Z,100113
2018-09-04T07:57:46.608Z,100115
2018-09-04T07:58:51.516Z,100107
2018-09-04T07:59:56.192Z,100118
2018-09-04T08:01:02.439Z,100127
2018-09-04T08:02:08.146Z,100113
2018-09-04T08:03:13.308Z,100113
2018-09-04T08:04:18.818Z,100118
2018-09-04T08:05:23.992Z,100118
2018-09-04T08:06:29.564Z,100110
2018-09-04T08:07:34.995Z,100116
2018-09-04T08:08:40.638Z,100118
2018-09-04T08:09:46.040Z,100121
2018-09-04T08:10:51.471Z,100124
2018-09-04T08:11:56.550Z,100121
2018-09-04T08:13:02.081Z,100124
2018-09-04T08:14:07.251Z,100121
2018-09-04T08:15:12.116Z,100107
2018-09-04T08:16:17.599Z,100113
2018-09-04T08:17:23.217Z,100104
2018-09-04T08:18:29.130Z,100110
2018-09-04T08:19:34.607Z,100104
2018-09-04T08:20:40.221Z,100116
2018-09-04T08:21:45.289Z,100113
2018-09-04T08:22:49.983Z,100110
2018-09-04T08:23:55.225Z,100118
2018-09-04T08:25:00.056Z,100110
2018-09-04T08:26:05.151Z,100113
2018-09-04T08:27:10.001Z,100113
2018-09-04T08:28:15.499Z,100113
2018-09-04T08:29:20.688Z,100116
2018-09-04T08:30:26.517Z,100113
2018-09-04T08:31:31.662Z,100113
2018-09-04T08:32:36.819Z,100110
2018-09-04T08:33:42.267Z,100107
2018-09-04T08:34:47.415Z,100113
2018-09-04T08:35:52.301Z,100113
2018-09-04T08:36:57.981Z,100124
2018-09-04T08:38:03.122Z,100124
2018-09-04T08:39:08.278Z,100124
2018-09-04T08:40:13.330Z,100116
2018-09-04T08:41:18.484Z,100119
2018-09-04T08:42:23.401Z,100119
2018-09-04T08:43:29.103Z,100124
2018-09-04T08:44:34.325Z,100133
2018-09-04T08:45:39.784Z,100124
2018-09-04T08:46:45.214Z,100119
2018-09-04T08:47:50.407Z,100116
2018-09-04T08:48:56.626Z,100113
2018-09-04T08:50:01.851Z,100119
2018-09-04T08:51:06.692Z,100130
2018-09-04T08:52:11.988Z,100116
2018-09-04T08:53:17.377Z,100110
2018-09-04T08:54:22.980Z,100116
2018-09-04T08:55:28.240Z,100113
2018-09-04T08:56:33.136Z,100113
2018-09-04T08:57:38.699Z,100127
2018-09-04T08:58:44.202Z,100121
2018-09-04T08:59:49.506Z,100121
2018-09-04T09:00:55.183Z,100116
2018-09-04T09:02:00.614Z,100116
2018-09-04T09:03:05.856Z,100113
2018-09-04T09:04:10.406Z,100113
2018-09-04T09:05:15.652Z,100113
2018-09-04T09:06:20.857Z,100119
2018-09-04T09:07:26.352Z,100110
2018-09-04T09:08:31.525Z,100101
2018-09-04T09:09:37.316Z,100113
2018-09-04T09:10:42.895Z,100116
2018-09-04T09:11:48.071Z,100116
2018-09-04T09:12:53.474Z,100121
2018-09-04T09:13:58.639Z,100116
2018-09-04T09:15:03.840Z,100116
2018-09-04T09:16:08.819Z,100113
2018-09-04T09:17:13.751Z,100107
2018-09-04T09:18:19.180Z,100107
2018-09-04T09:19:24.584Z,100113
2018-09-04T09:20:30.052Z,100110
2018-09-04T09:21:35.191Z,100121
2018-09-04T09:22:40.762Z,100101
2018-09-04T09:23:46.313Z,100098
2018-09-04T09:24:51.588Z,100110
2018-09-04T09:25:56.782Z,100107
2018-09-04T09:27:02.156Z,100107
2018-09-04T09:28:07.697Z,100116
2018-09-04T09:29:13.163Z,100104
2018-09-04T09:30:18.306Z,100101
2018-09-04T09:31:23.172Z,100110
2018-09-04T09:32:28.351Z,100113
2018-09-04T09:33:33.795Z,100124
2018-09-04T09:34:38.985Z,100119
2018-09-04T09:35:44.484Z,100124
2018-09-04T09:36:50.515Z,100127
2018-09-04T09:37:55.178Z,100124
2018-09-04T09:38:59.191Z,100124
2018-09-04T09:40:04.599Z,100119
2018-09-04T09:41:10.025Z,100113
2018-09-04T09:42:15.506Z,100116
2018-09-04T09:43:20.689Z,100122
2018-09-04T09:44:25.854Z,100122
2018-09-04T09:45:31.160Z,100110
2018-09-04T09:46:36.367Z,100122
2018-09-04T09:47:41.525Z,100110
2018-09-04T09:48:47.404Z,100107
2018-09-04T09:49:52.285Z,100104
2018-09-04T09:50:57.716Z,100098
2018-09-04T09:52:03.181Z,100107
2018-09-04T09:53:09.057Z,100107
2018-09-04T09:54:15.202Z,100104
2018-09-04T09:55:20.820Z,100098
2018-09-04T09:56:26.292Z,100107
2018-09-04T09:57:32.928Z,100095
2018-09-04T09:58:38.416Z,100095
2018-09-04T09:59:43.970Z,100093
2018-09-04T10:00:49.585Z,100095
2018-09-04T10:01:54.938Z,100093
2018-09-04T10:02:59.818Z,100098
2018-09-04T10:04:05.311Z,100104
2018-09-04T10:05:11.378Z,100090
2018-09-04T10:06:16.535Z,100087
2018-09-04T10:07:22.254Z,100087
2018-09-04T10:08:26.947Z,100087
2018-09-04T10:09:32.760Z,100093
2018-09-04T10:10:38.497Z,100081
2018-09-04T10:11:43.623Z,100090
2018-09-04T10:12:48.991Z,100087
2018-09-04T10:13:54.077Z,100081
2018-09-04T10:14:59.236Z,100070
2018-09-04T10:16:05.079Z,100078
2018-09-04T10:17:09.444Z,100084
2018-09-04T10:18:14.878Z,100075
2018-09-04T10:19:20.280Z,100081
2018-09-04T10:20:25.574Z,100070
2018-09-04T10:21:31.329Z,100078
2018-09-04T10:22:36.239Z,100084
2018-09-04T10:23:41.508Z,100081
2018-09-04T10:24:46.385Z,100081
2018-09-04T10:25:51.534Z,100081
2018-09-04T10:26:56.120Z,100070
2018-09-04T10:28:01.294Z,100062
2018-09-04T10:29:06.180Z,100075
2018-09-04T10:30:11.523Z,100062
2018-09-04T10:31:17.055Z,100067
2018-09-04T10:32:22.305Z,100070
2018-09-04T10:33:42.387Z,100070
2018-09-04T10:34:47.881Z,100062
2018-09-04T10:35:53.033Z,100062
2018-09-04T10:36:58.730Z,100075
2018-09-04T10:38:04.230Z,100070
2018-09-04T10:39:09.116Z,100067
2018-09-04T10:40:14.411Z,100067
2018-09-04T10:41:19.308Z,100062
2018-09-04T10:42:23.855Z,100062
2018-09-04T10:43:44.236Z,100064
2018-09-04T10:44:49.101Z,100064
2018-09-04T10:45:54.708Z,100064
2018-09-04T10:46:59.921Z,100047
2018-09-04T10:48:04.812Z,100067
2018-09-04T10:49:10.091Z,100056
2018-09-04T10:50:15.571Z,100050
2018-09-04T10:51:21.057Z,100056
2018-09-04T10:52:26.483Z,100050
2018-09-04T10:53:31.693Z,100062
2018-09-04T10:54:37.097Z,100053
2018-09-04T10:55:42.694Z,100053
2018-09-04T10:56:48.222Z,100044
2018-09-04T10:57:53.617Z,100041
2018-09-04T10:58:58.979Z,100053
2018-09-04T11:00:04.494Z,100033
2018-09-04T11:01:09.363Z,100044
2018-09-04T11:02:14.938Z,100053
2018-09-04T11:03:20.638Z,100053
2018-09-04T11:04:26.285Z,100050
2018-09-04T11:05:31.532Z,100044
2018-09-04T11:06:37.036Z,100053
2018-09-04T11:07:42.437Z,100056
2018-09-04T11:08:47.934Z,100044
2018-09-04T11:09:54.330Z,100044
2018-09-04T11:11:00.009Z,100047
2018-09-04T11:12:04.939Z,100047
2018-09-04T11:13:09.778Z,100035
2018-09-04T11:14:15.289Z,100041
2018-09-04T11:15:20.300Z,100038
2018-09-04T11:16:25.729Z,100041
2018-09-04T11:17:30.315Z,100030
2018-09-04T11:18:35.884Z,100038
2018-09-04T11:19:41.026Z,100035
2018-09-04T11:20:45.975Z,100035
2018-09-04T11:21:51.481Z,100041
2018-09-04T11:22:56.666Z,100038
2018-09-04T11:24:01.817Z,100038
2018-09-04T11:25:06.380Z,100041
2018-09-04T11:26:11.538Z,100024
2018-09-04T11:27:16.712Z,100038
2018-09-04T11:28:22.683Z,100038
2018-09-04T11:29:27.550Z,100035
2018-09-04T11:30:33.162Z,100027
2018-09-04T11:31:38.345Z,100030
2018-09-04T11:32:43.940Z,100027
2018-09-04T11:33:49.620Z,100030
2018-09-04T11:34:54.776Z,100030
2018-09-04T11:35:59.675Z,100024
2018-09-04T11:37:04.945Z,100027
2018-09-04T11:38:10.120Z,100030
2018-09-04T11:39:15.554Z,100030
2018-09-04T11:40:21.339Z,100027
2018-09-04T11:41:26.222Z,100030
2018-09-04T11:42:31.358Z,100033
2018-09-04T11:43:37.173Z,100033
2018-09-04T11:44:42.527Z,100035
2018-09-04T11:45:48.013Z,100033
2018-09-04T11:46:52.328Z,100027
2018-09-04T11:47:57.921Z,100035
2018-09-04T11:49:03.025Z,100035
2018-09-04T11:50:07.996Z,100033
2018-09-04T11:51:13.221Z,100024
2018-09-04T11:52:18.373Z,100024
2018-09-04T11:53:23.833Z,100030
2018-09-04T11:54:29.416Z,100027
2018-09-04T11:55:34.493Z,100024
2018-09-04T11:56:40.022Z,100021
2018-09-04T11:57:45.735Z,100027
2018-09-04T11:58:51.224Z,100030
2018-09-04T11:59:56.117Z,100021
2018-09-04T12:01:01.543Z,100030
2018-09-04T12:02:06.818Z,100021
2018-09-04T12:03:12.561Z,100018
2018-09-04T12:04:17.963Z,100018
2018-09-04T12:05:23.108Z,100021
2018-09-04T12:06:28.942Z,100018
2018-09-04T12:07:34.667Z,100030
2018-09-04T12:08:39.961Z,100027
2018-09-04T12:09:45.741Z,100021
2018-09-04T12:10:51.333Z,100018
2018-09-04T12:11:56.014Z,100030
2018-09-04T12:13:01.416Z,100027
2018-09-04T12:14:06.987Z,100018
2018-09-04T12:15:12.513Z,100030
2018-09-04T12:16:18.042Z,100035
2018-09-04T12:17:23.197Z,100024
2018-09-04T12:18:28.664Z,100035
2018-09-04T12:19:33.626Z,100035
2018-09-04T12:20:38.591Z,100030
2018-09-04T12:21:44.413Z,100024
2018-09-04T12:22:49.934Z,100027
2018-09-04T12:23:55.568Z,100024
2018-09-04T12:25:01.032Z,100033
2018-09-04T12:26:05.678Z,100024
2018-09-04T12:27:11.652Z,100021
2018-09-04T12:28:17.828Z,100027
2018-09-04T12:29:23.051Z,100027
2018-09-04T12:30:28.726Z,100021
2018-09-04T12:31:33.871Z,100021
2018-09-04T12:32:39.102Z,100018
2018-09-04T12:33:44.736Z,100021
2018-09-04T12:34:49.961Z,100021
2018-09-04T12:35:55.162Z,100018
2018-09-04T12:37:01.032Z,100018
2018-09-04T12:38:05.912Z,100024
2018-09-04T12:39:11.092Z,100024
2018-09-04T12:40:16.313Z,100012
2018-09-04T12:41:21.804Z,100018
2018-09-04T12:42:42.013Z,100015
2018-09-04T12:43:47.217Z,100015
2018-09-04T12:44:52.426Z,100009
2018-09-04T12:45:57.043Z,100009
2018-09-04T12:47:02.499Z,100015
2018-09-04T12:48:07.458Z,100001
2018-09-04T12:49:12.705Z,100006
2018-09-04T12:50:17.774Z,100004
2018-09-04T12:51:22.971Z,100015
2018-09-04T12:52:28.648Z,100018
2018-09-04T12:53:34.116Z,99998
2018-09-04T12:54:39.649Z,100021
2018-09-04T12:55:45.465Z,100012
2018-09-04T12:56:50.912Z,100018
2018-09-04T12:57:56.874Z,100012
2018-09-04T12:59:02.306Z,100006
2018-09-04T13:00:07.772Z,100004
2018-09-04T13:01:12.922Z,100001
2018-09-04T13:02:17.812Z,100004
2018-09-04T13:03:23.002Z,100004
2018-09-04T13:04:43.350Z,100001
2018-09-04T13:05:48.500Z,100012
2018-09-04T13:06:53.753Z,100004
2018-09-04T13:07:58.334Z,100004
2018-09-04T13:09:03.665Z,100006
2018-09-04T13:10:09.332Z,100009
2018-09-04T13:11:14.863Z,99998
2018-09-04T13:12:20.147Z,100004
2018-09-04T13:13:25.398Z,99998
2018-09-04T13:14:30.796Z,100001
2018-09-04T13:15:35.709Z,100006
2018-09-04T13:16:40.573Z,100006
2018-09-04T13:17:45.746Z,100004
2018-09-04T13:18:50.643Z,100004
2018-09-04T13:19:55.871Z,99998
2018-09-04T13:21:01.307Z,100012
2018-09-04T13:22:06.538Z,100012
2018-09-04T13:23:11.971Z,100012
2018-09-04T13:24:17.646Z,100006
2018-09-04T13:25:22.929Z,100004
2018-09-04T13:26:28.251Z,100006
2018-09-04T13:27:34.252Z,100006
2018-09-04T13:28:39.122Z,100006
2018-09-04T13:29:44.566Z,100001
2018-09-04T13:30:49.770Z,100006
2018-09-04T13:31:55.333Z,100004
2018-09-04T13:33:00.710Z,100001
2018-09-04T13:34:06.186Z,100001
2018-09-04T13:35:11.120Z,100001
2018-09-04T13:36:16.027Z,100001
2018-09-04T13:37:21.408Z,99992
2018-09-04T13:38:26.596Z,99995
2018-09-04T13:39:32.369Z,99995
2018-09-04T13:40:37.577Z,99989
2018-09-04T13:41:43.173Z,99995
2018-09-04T13:42:48.288Z,99983